SBPA/POA METAR and TAF weather

Enter ICAO airport designator
Station Type Date Time Source
SBPA METAR 2019/08/24 21:00 UTC NOAA

SBPA 242100Z 11013KT CAVOK 17/09 Q1024


Station Type Date Time Source
SBPA Decoded METAR 2019/08/24 21:00 UTC NOAA

Station name not available
Aug 24, 2019 - 05:00 PM EDT / 2019.08.24 2100 UTC
Wind: from the ESE (110 degrees) at 15 MPH (13 KT):0
Visibility: greater than 7 mile(s):0
Temperature: 62 F (17 C)
Dew Point: 48 F (9 C)
Relative Humidity: 59%
Pressure (altimeter): 30.24 in. Hg (1024 hPa)
ob: SBPA 242100Z 11013KT CAVOK 17/09 Q1024
cycle: 21

Station Type Date Time Source
SBPA TAF 2019/08/24 18:48 UTC NOAA

TAF TAF SBPA 240945Z 2418/2518 11012KT 9999 SCT040 TX20/2418Z TN10/2509Z
BECMG 2421/2423 CAVOK
BECMG 2502/2504 09006KT PROB40 2506/2510 3000 BR NSC
RMK PEB

Example: see airport list